createdAt,value
2022-12-09T00:00:20.116Z,13.70
2022-12-09T00:02:48.163Z,14.35
2022-12-09T00:05:16.361Z,14.43
2022-12-09T00:07:44.395Z,15.98
2022-12-09T00:10:12.808Z,14.45
2022-12-09T00:12:40.892Z,15.07
2022-12-09T00:15:10.628Z,14.48
2022-12-09T00:17:38.465Z,13.60
2022-12-09T00:20:08.188Z,14.07
2022-12-09T00:22:37.472Z,13.52
2022-12-09T00:25:05.675Z,13.60
2022-12-09T00:27:33.489Z,15.40
2022-12-09T00:30:02.017Z,13.73
2022-12-09T00:32:31.071Z,14.02
2022-12-09T00:34:58.966Z,14.60
2022-12-09T00:37:26.854Z,13.13
2022-12-09T00:39:54.886Z,13.30
2022-12-09T00:42:22.631Z,13.10
2022-12-09T00:44:50.292Z,13.40
2022-12-09T00:47:18.156Z,13.18
2022-12-09T00:49:48.670Z,11.88
2022-12-09T00:52:16.344Z,42.33
2022-12-09T00:54:44.368Z,58.20
2022-12-09T00:57:12.256Z,44.08
2022-12-09T00:59:40.088Z,37.38
2022-12-09T01:02:07.895Z,22.92
2022-12-09T01:04:36.109Z,18.30
2022-12-09T01:07:06.648Z,15.20
2022-12-09T01:09:35.150Z,16.92
2022-12-09T01:12:03.908Z,16.33
2022-12-09T01:14:31.565Z,15.73
2022-12-09T01:16:59.364Z,16.67
2022-12-09T01:19:27.089Z,16.15
2022-12-09T01:21:55.664Z,15.48
2022-12-09T01:24:24.702Z,16.23
2022-12-09T01:26:52.467Z,16.50
2022-12-09T01:29:20.610Z,17.30
2022-12-09T01:31:50.324Z,17.60
2022-12-09T01:34:18.181Z,17.70
2022-12-09T01:36:47.855Z,16.92
2022-12-09T01:39:16.811Z,17.27
2022-12-09T01:41:46.480Z,18.20
2022-12-09T01:44:21.345Z,18.77
2022-12-09T01:46:49.941Z,17.65
2022-12-09T01:49:23.880Z,17.77
2022-12-09T01:51:58.218Z,17.90
2022-12-09T01:54:26.115Z,16.95
2022-12-09T01:56:56.317Z,17.85
2022-12-09T01:59:25.441Z,18.10
2022-12-09T02:01:57.606Z,17.63
2022-12-09T02:04:26.310Z,17.15
2022-12-09T02:06:54.219Z,18.13
2022-12-09T02:09:22.288Z,17.80
2022-12-09T02:12:07.190Z,18.02
2022-12-09T02:14:40.478Z,17.08
2022-12-09T02:17:25.937Z,17.25
2022-12-09T02:20:04.081Z,17.80
2022-12-09T02:22:36.278Z,18.25
2022-12-09T02:25:13.993Z,18.05
2022-12-09T02:27:50.339Z,17.10
2022-12-09T02:30:21.431Z,17.55
2022-12-09T02:33:27.418Z,18.00
2022-12-09T02:36:03.315Z,16.25
2022-12-09T02:38:34.618Z,18.73
2022-12-09T02:41:07.633Z,16.33
2022-12-09T02:43:46.630Z,16.58
2022-12-09T02:46:21.151Z,16.13
2022-12-09T02:48:53.033Z,16.52
2022-12-09T02:51:25.183Z,15.63
2022-12-09T02:53:56.095Z,17.25
2022-12-09T02:56:26.125Z,17.38
2022-12-09T02:58:54.057Z,17.25
2022-12-09T03:01:34.596Z,17.05
2022-12-09T03:04:03.282Z,16.88
2022-12-09T03:06:39.719Z,17.17
2022-12-09T03:09:11.403Z,17.73
2022-12-09T03:11:41.407Z,16.55
2022-12-09T03:14:13.204Z,16.75
2022-12-09T03:16:46.976Z,15.43
2022-12-09T03:19:19.986Z,16.48
2022-12-09T03:21:52.348Z,16.75
2022-12-09T03:24:23.275Z,15.73
2022-12-09T03:26:52.617Z,15.40
2022-12-09T03:29:25.857Z,16.50
2022-12-09T03:31:57.885Z,15.40
2022-12-09T03:34:29.744Z,15.90
2022-12-09T03:36:59.494Z,15.30
2022-12-09T03:39:32.849Z,15.70
2022-12-09T03:42:05.064Z,16.63
2022-12-09T03:44:38.188Z,15.70
2022-12-09T03:47:08.023Z,15.60
2022-12-09T03:49:37.123Z,16.95
2022-12-09T03:52:12.200Z,17.27
2022-12-09T03:54:44.122Z,16.80
2022-12-09T03:57:18.732Z,17.20
2022-12-09T03:59:52.108Z,17.88
2022-12-09T04:02:20.091Z,17.75
2022-12-09T04:04:47.765Z,17.40
2022-12-09T04:07:16.917Z,18.60
2022-12-09T04:09:46.262Z,17.80
2022-12-09T04:12:14.048Z,18.65
2022-12-09T04:14:41.932Z,16.92
2022-12-09T04:17:11.153Z,18.95
2022-12-09T04:19:38.955Z,18.15
2022-12-09T04:22:06.651Z,18.48
2022-12-09T04:24:35.577Z,18.60
2022-12-09T04:27:03.187Z,17.60
2022-12-09T04:29:31.394Z,17.25
2022-12-09T04:31:59.604Z,17.42
2022-12-09T04:34:27.836Z,17.55
2022-12-09T04:36:55.622Z,18.02
2022-12-09T04:39:23.450Z,18.00
2022-12-09T04:41:52.476Z,17.08
2022-12-09T04:44:20.709Z,16.77
2022-12-09T04:46:51.002Z,16.58
2022-12-09T04:49:18.673Z,17.88
2022-12-09T04:51:46.454Z,16.77
2022-12-09T04:54:15.375Z,17.48
2022-12-09T04:56:43.767Z,16.90
2022-12-09T04:59:12.996Z,17.05
2022-12-09T05:01:40.889Z,18.30
2022-12-09T05:04:10.342Z,19.40
2022-12-09T05:06:38.709Z,18.33
2022-12-09T05:09:06.663Z,18.52
2022-12-09T05:11:34.642Z,18.02
2022-12-09T05:14:03.023Z,18.38
2022-12-09T05:16:32.407Z,19.80
2022-12-09T05:19:01.436Z,19.08
2022-12-09T05:21:31.980Z,19.67
2022-12-09T05:24:00.175Z,19.63
2022-12-09T05:26:28.280Z,19.67
2022-12-09T05:28:56.100Z,22.25
2022-12-09T05:31:25.299Z,21.23
2022-12-09T05:33:54.893Z,19.60
2022-12-09T05:36:25.742Z,19.83
2022-12-09T05:38:54.697Z,17.92
2022-12-09T05:41:23.629Z,18.02
2022-12-09T05:43:52.050Z,15.85
2022-12-09T05:46:20.088Z,16.88
2022-12-09T05:48:48.303Z,16.40
2022-12-09T05:51:22.578Z,16.73
2022-12-09T05:53:50.490Z,16.00
2022-12-09T05:56:18.888Z,16.20
2022-12-09T05:58:46.904Z,17.05
2022-12-09T06:01:15.524Z,17.27
2022-12-09T06:03:43.871Z,15.90
2022-12-09T06:06:14.888Z,16.77
2022-12-09T06:08:45.521Z,17.02
2022-12-09T06:11:15.570Z,16.40
2022-12-09T06:13:45.336Z,15.73
2022-12-09T06:16:14.715Z,17.13
2022-12-09T06:18:42.994Z,16.27
2022-12-09T06:21:13.410Z,16.30
2022-12-09T06:23:46.348Z,16.13
2022-12-09T06:26:37.562Z,17.00
2022-12-09T06:29:19.053Z,17.67
2022-12-09T06:31:59.701Z,16.17
2022-12-09T06:34:36.485Z,17.45
2022-12-09T06:37:18.949Z,17.20
2022-12-09T06:39:52.751Z,15.95
2022-12-09T06:42:21.246Z,16.27
2022-12-09T06:44:51.676Z,16.95
2022-12-09T06:47:22.008Z,16.58
2022-12-09T06:49:58.181Z,15.20
2022-12-09T06:52:34.574Z,15.57
2022-12-09T06:55:09.882Z,15.00
2022-12-09T06:57:47.467Z,14.82
2022-12-09T07:00:20.916Z,15.13
2022-12-09T07:02:54.530Z,15.60
2022-12-09T07:05:29.773Z,14.15
2022-12-09T07:08:01.974Z,15.20
2022-12-09T07:10:31.712Z,14.57
2022-12-09T07:13:00.518Z,14.52
2022-12-09T07:15:29.243Z,13.80
2022-12-09T07:17:57.872Z,13.60
2022-12-09T07:20:26.181Z,13.68
2022-12-09T07:22:54.380Z,14.88
2022-12-09T07:25:22.696Z,14.30
2022-12-09T07:27:52.271Z,13.85
2022-12-09T07:30:23.398Z,12.90
2022-12-09T07:32:51.170Z,13.98
2022-12-09T07:35:19.542Z,14.10
2022-12-09T07:37:49.265Z,13.70
2022-12-09T07:40:17.329Z,14.25
2022-12-09T07:42:45.266Z,14.35
2022-12-09T07:45:15.319Z,15.32
2022-12-09T07:47:43.984Z,15.88
2022-12-09T07:50:13.013Z,13.93
2022-12-09T07:52:40.987Z,14.45
2022-12-09T07:55:10.909Z,13.57
2022-12-09T07:57:41.787Z,15.02
2022-12-09T08:00:10.916Z,15.45
2022-12-09T08:02:48.846Z,15.77
2022-12-09T08:05:34.737Z,15.85
2022-12-09T08:08:18.318Z,14.50
2022-12-09T08:10:47.548Z,14.98
2022-12-09T08:13:15.462Z,16.30
2022-12-09T08:15:43.428Z,16.25
2022-12-09T08:18:12.815Z,15.52
2022-12-09T08:20:41.139Z,15.50
2022-12-09T08:23:09.017Z,17.00
2022-12-09T08:25:36.687Z,16.55
2022-12-09T08:28:04.757Z,16.77
2022-12-09T08:30:32.629Z,15.65
2022-12-09T08:33:00.811Z,16.02
2022-12-09T08:35:29.997Z,17.08
2022-12-09T08:37:57.776Z,16.02
2022-12-09T08:40:25.608Z,17.13
2022-12-09T08:42:53.773Z,18.13
2022-12-09T08:45:22.434Z,16.70
2022-12-09T08:47:51.531Z,16.73
2022-12-09T08:50:19.876Z,16.42
2022-12-09T08:52:49.187Z,16.02
2022-12-09T08:55:17.072Z,16.65
2022-12-09T08:57:45.187Z,17.35
2022-12-09T09:00:14.214Z,15.60
2022-12-09T09:02:43.198Z,16.02
2022-12-09T09:05:11.586Z,15.77
2022-12-09T09:07:41.587Z,17.23
2022-12-09T09:10:12.100Z,15.75
2022-12-09T09:12:43.589Z,16.15
2022-12-09T09:15:12.887Z,15.07
2022-12-09T09:17:42.064Z,14.52
2022-12-09T09:20:16.658Z,15.85
2022-12-09T09:22:45.070Z,14.93
2022-12-09T09:25:14.895Z,13.27
2022-12-09T09:27:42.849Z,14.45
2022-12-09T09:30:11.990Z,15.80
2022-12-09T09:32:39.884Z,15.07
2022-12-09T09:35:08.907Z,14.48
2022-12-09T09:37:37.665Z,12.75
2022-12-09T09:40:07.810Z,14.50
2022-12-09T09:42:44.731Z,14.13
2022-12-09T09:45:17.177Z,14.23
2022-12-09T09:47:51.341Z,14.00
2022-12-09T09:50:28.537Z,14.40
2022-12-09T09:52:57.658Z,14.07
2022-12-09T09:55:36.079Z,13.40
2022-12-09T09:58:17.041Z,15.02
2022-12-09T10:00:52.413Z,15.43
2022-12-09T10:03:30.413Z,14.32
2022-12-09T10:06:06.879Z,14.15
2022-12-09T10:08:45.717Z,13.30
2022-12-09T10:11:21.611Z,14.35
2022-12-09T10:13:58.340Z,12.93
2022-12-09T10:16:36.799Z,12.82
2022-12-09T10:19:09.690Z,14.52
2022-12-09T10:21:42.500Z,13.25
2022-12-09T10:24:21.414Z,13.68
2022-12-09T10:26:58.528Z,14.82
2022-12-09T10:29:58.408Z,13.18
2022-12-09T10:32:28.798Z,12.25
2022-12-09T10:34:57.408Z,13.40
2022-12-09T10:37:29.170Z,12.65
2022-12-09T10:40:04.139Z,14.20
2022-12-09T10:42:56.826Z,12.63
2022-12-09T10:45:32.168Z,13.82
2022-12-09T10:48:21.066Z,13.43
2022-12-09T10:50:56.110Z,12.48
2022-12-09T10:53:24.708Z,13.93
2022-12-09T10:55:54.827Z,13.95
2022-12-09T10:58:25.633Z,13.38
2022-12-09T11:01:04.447Z,13.45
2022-12-09T11:03:35.290Z,13.65
2022-12-09T11:06:11.491Z,12.98
2022-12-09T11:08:42.524Z,14.00
2022-12-09T11:11:11.081Z,13.50
2022-12-09T11:13:43.433Z,14.20
2022-12-09T11:16:13.449Z,14.55
2022-12-09T11:18:47.416Z,12.68
2022-12-09T11:21:33.748Z,13.25
2022-12-09T11:24:03.988Z,11.38
2022-12-09T11:26:36.645Z,12.50
2022-12-09T11:29:07.558Z,12.55
2022-12-09T11:31:40.938Z,13.73
2022-12-09T11:34:17.230Z,12.43
2022-12-09T11:39:42.444Z,11.40
2022-12-09T11:42:21.960Z,12.82
2022-12-09T11:44:56.780Z,12.60
2022-12-09T11:47:44.869Z,13.00
2022-12-09T11:50:22.615Z,12.38
2022-12-09T11:53:07.525Z,12.95
2022-12-09T11:55:49.071Z,11.82
2022-12-09T11:58:23.092Z,12.43
2022-12-09T12:00:55.315Z,13.63
2022-12-09T12:03:32.139Z,12.73
2022-12-09T12:06:03.481Z,12.65
2022-12-09T12:08:38.021Z,13.55
2022-12-09T12:11:14.834Z,12.88
2022-12-09T12:13:46.183Z,12.40
2022-12-09T12:16:21.724Z,13.48
2022-12-09T12:18:56.842Z,13.65
2022-12-09T12:21:42.550Z,11.80
2022-12-09T12:24:32.949Z,12.95
2022-12-09T12:27:15.174Z,13.07
2022-12-09T12:29:54.270Z,12.27
2022-12-09T12:32:34.256Z,13.38
2022-12-09T12:35:22.882Z,11.70
2022-12-09T12:38:02.038Z,12.10
2022-12-09T12:40:38.056Z,12.88
2022-12-09T12:43:38.747Z,12.25
2022-12-09T12:46:28.259Z,12.95
2022-12-09T12:49:11.008Z,13.32
2022-12-09T12:51:52.548Z,12.82
2022-12-09T12:54:29.100Z,11.98
2022-12-09T12:57:09.460Z,12.63
2022-12-09T12:59:47.209Z,11.75
2022-12-09T13:02:29.502Z,11.32
2022-12-09T13:05:03.412Z,11.73
2022-12-09T13:07:39.900Z,12.43
2022-12-09T13:10:19.123Z,12.60
2022-12-09T13:12:55.019Z,12.25
2022-12-09T13:15:32.254Z,12.82
2022-12-09T13:18:06.647Z,12.95
2022-12-09T13:20:47.345Z,13.90
2022-12-09T13:23:31.826Z,13.00
2022-12-09T13:26:13.498Z,13.32
2022-12-09T13:28:49.868Z,12.88
2022-12-09T13:31:21.073Z,12.40
2022-12-09T13:33:58.164Z,12.57
2022-12-09T13:36:36.635Z,14.10
2022-12-09T13:39:06.214Z,12.50
2022-12-09T13:41:56.593Z,12.55
2022-12-09T13:44:30.741Z,12.75
2022-12-09T13:47:15.513Z,13.30
2022-12-09T13:49:43.631Z,12.35
2022-12-09T13:52:11.449Z,11.77
2022-12-09T13:54:49.184Z,11.48
2022-12-09T13:57:25.951Z,11.57
2022-12-09T13:59:57.733Z,10.40
2022-12-09T14:02:34.971Z,10.50
2022-12-09T14:05:11.892Z,8.90
2022-12-09T14:07:43.667Z,9.25
2022-12-09T14:10:38.005Z,11.35
2022-12-09T14:13:28.270Z,10.43
2022-12-09T14:16:17.707Z,10.00
2022-12-09T14:18:47.852Z,9.65
2022-12-09T14:21:26.470Z,10.55
2022-12-09T14:24:32.295Z,10.20
2022-12-09T14:27:16.101Z,9.82
2022-12-09T14:29:55.760Z,10.80
2022-12-09T14:32:29.058Z,10.05
2022-12-09T14:35:07.297Z,9.75
2022-12-09T14:37:53.064Z,10.48
2022-12-09T14:40:33.130Z,10.85
2022-12-09T14:43:16.741Z,9.35
2022-12-09T14:45:51.372Z,10.02
2022-12-09T14:48:22.566Z,9.50
2022-12-09T14:54:46.814Z,9.38
2022-12-09T14:57:21.154Z,9.93
2022-12-09T14:59:52.506Z,10.48
2022-12-09T15:02:24.435Z,8.70
2022-12-09T15:04:53.637Z,9.93
2022-12-09T15:07:25.029Z,10.63
2022-12-09T15:09:56.150Z,9.52
2022-12-09T15:12:30.569Z,10.93
2022-12-09T15:15:04.954Z,14.68
2022-12-09T15:17:37.509Z,12.60
2022-12-09T15:20:06.532Z,12.48
2022-12-09T15:22:34.740Z,13.15
2022-12-09T15:25:04.412Z,12.13
2022-12-09T15:27:32.717Z,12.18
2022-12-09T15:30:01.786Z,11.30
2022-12-09T15:32:31.348Z,11.90
2022-12-09T15:35:18.278Z,11.40
2022-12-09T15:37:47.245Z,12.80
2022-12-09T15:40:19.952Z,12.73
2022-12-09T15:42:51.933Z,11.63
2022-12-09T15:45:24.264Z,12.82
2022-12-09T15:47:55.847Z,12.63
2022-12-09T15:50:27.062Z,12.15
2022-12-09T15:52:57.187Z,12.80
2022-12-09T15:55:28.325Z,13.40
2022-12-09T15:58:03.121Z,13.30
2022-12-09T16:00:32.583Z,14.27
2022-12-09T16:03:00.369Z,13.80
2022-12-09T16:05:28.267Z,11.57
2022-12-09T16:07:58.550Z,12.38
2022-12-09T16:10:27.589Z,13.10
2022-12-09T16:13:07.374Z,13.00
2022-12-09T16:15:46.889Z,13.20
2022-12-09T16:18:19.075Z,13.10
2022-12-09T16:21:01.719Z,12.95
2022-12-09T16:23:29.600Z,13.60
2022-12-09T16:26:06.383Z,12.70
2022-12-09T16:28:34.694Z,13.93
2022-12-09T16:31:16.520Z,13.85
2022-12-09T16:33:49.194Z,14.65
2022-12-09T16:36:20.017Z,15.20
2022-12-09T16:39:38.131Z,14.30
2022-12-09T16:42:21.836Z,14.20
2022-12-09T16:44:49.846Z,14.70
2022-12-09T16:47:19.405Z,14.50
2022-12-09T16:49:49.043Z,15.15
2022-12-09T16:52:18.724Z,16.30
2022-12-09T16:54:47.622Z,18.73
2022-12-09T16:57:19.717Z,18.70
2022-12-09T16:59:47.957Z,20.17
2022-12-09T17:02:22.070Z,20.58
2022-12-09T17:04:51.586Z,18.42
2022-12-09T17:07:19.267Z,18.02
2022-12-09T17:09:46.926Z,17.17
2022-12-09T17:12:18.799Z,16.42
2022-12-09T17:14:52.758Z,17.10
2022-12-09T17:17:26.818Z,18.00
2022-12-09T17:19:54.495Z,17.13
2022-12-09T17:22:22.220Z,17.60
2022-12-09T17:24:50.414Z,17.90
2022-12-09T17:27:19.508Z,17.90
2022-12-09T17:29:47.532Z,17.33
2022-12-09T17:32:15.165Z,20.50
2022-12-09T17:34:42.977Z,19.55
2022-12-09T17:37:10.744Z,19.05
2022-12-09T17:39:38.731Z,19.63
2022-12-09T17:42:06.468Z,18.20
2022-12-09T17:44:35.855Z,17.88
2022-12-09T17:47:03.453Z,19.38
2022-12-09T17:49:31.293Z,19.25
2022-12-09T17:51:59.036Z,19.50
2022-12-09T17:54:26.731Z,18.45
2022-12-09T17:56:54.382Z,18.50
2022-12-09T17:59:22.010Z,19.05
2022-12-09T18:01:50.956Z,19.70
2022-12-09T18:04:18.811Z,19.20
2022-12-09T18:06:47.078Z,19.20
2022-12-09T18:09:16.237Z,18.13
2022-12-09T18:11:44.453Z,19.33
2022-12-09T18:14:12.575Z,17.33
2022-12-09T18:16:40.719Z,17.42
2022-12-09T18:19:14.585Z,17.95
2022-12-09T18:21:42.407Z,18.27
2022-12-09T18:24:10.425Z,18.25
2022-12-09T18:26:41.623Z,18.70
2022-12-09T18:29:10.636Z,18.75
2022-12-09T18:31:38.616Z,19.77
2022-12-09T18:34:06.236Z,18.88
2022-12-09T18:36:35.251Z,18.92
2022-12-09T18:39:02.919Z,18.67
2022-12-09T18:41:32.068Z,19.10
2022-12-09T18:44:07.634Z,19.48
2022-12-09T18:46:38.818Z,19.40
2022-12-09T18:49:08.568Z,20.10
2022-12-09T18:51:39.032Z,19.30
2022-12-09T18:54:07.677Z,19.50
2022-12-09T18:56:36.930Z,18.20
2022-12-09T18:59:06.984Z,19.08
2022-12-09T19:01:39.407Z,19.73
2022-12-09T19:04:09.699Z,19.15
2022-12-09T19:06:41.112Z,19.75
2022-12-09T19:09:10.926Z,19.17
2022-12-09T19:11:40.848Z,20.20
2022-12-09T19:14:09.780Z,19.83
2022-12-09T19:16:38.164Z,18.77
2022-12-09T19:19:10.008Z,18.70
2022-12-09T19:21:40.120Z,17.42
2022-12-09T19:24:10.813Z,17.05
2022-12-09T19:26:38.460Z,18.75
2022-12-09T19:29:08.566Z,17.52
2022-12-09T19:31:39.714Z,17.27
2022-12-09T19:34:11.237Z,18.13
2022-12-09T19:36:40.264Z,17.38
2022-12-09T19:39:10.169Z,16.92
2022-12-09T19:41:39.031Z,17.95
2022-12-09T19:44:07.482Z,16.67
2022-12-09T19:46:36.608Z,17.25
2022-12-09T19:49:04.328Z,16.73
2022-12-09T19:51:32.206Z,17.00
2022-12-09T19:54:02.356Z,16.23
2022-12-09T19:56:30.720Z,18.00
2022-12-09T19:58:59.681Z,17.05
2022-12-09T20:01:28.998Z,17.60
2022-12-09T20:03:58.563Z,17.33
2022-12-09T20:06:26.751Z,16.80
2022-12-09T20:08:54.787Z,17.33
2022-12-09T20:11:26.004Z,17.83
2022-12-09T20:13:53.758Z,17.27
2022-12-09T20:16:23.404Z,17.27
2022-12-09T20:18:52.002Z,16.75
2022-12-09T20:21:21.080Z,16.27
2022-12-09T20:23:49.599Z,16.80
2022-12-09T20:26:19.428Z,16.70
2022-12-09T20:28:49.628Z,16.83
2022-12-09T20:31:19.733Z,18.20
2022-12-09T20:33:47.585Z,15.50
2022-12-09T20:36:21.007Z,17.00
2022-12-09T20:38:50.308Z,18.67
2022-12-09T20:41:18.189Z,18.27
2022-12-09T20:43:49.421Z,17.13
2022-12-09T20:46:18.869Z,18.27
2022-12-09T20:48:47.486Z,17.67
2022-12-09T20:51:16.997Z,17.35
2022-12-09T20:53:45.997Z,17.67
2022-12-09T20:56:14.429Z,15.35
2022-12-09T20:58:43.402Z,16.73
2022-12-09T21:01:14.703Z,17.35
2022-12-09T21:03:43.100Z,18.98
2022-12-09T21:06:12.314Z,18.23
2022-12-09T21:08:40.541Z,17.02
2022-12-09T21:11:10.987Z,16.45
2022-12-09T21:13:40.388Z,16.40
2022-12-09T21:16:10.537Z,16.48
2022-12-09T21:18:39.945Z,16.10
2022-12-09T21:21:07.523Z,16.10
2022-12-09T21:23:36.112Z,16.25
2022-12-09T21:26:05.624Z,16.50
2022-12-09T21:28:33.531Z,16.05
2022-12-09T21:31:06.577Z,16.15
2022-12-09T21:33:34.176Z,16.55
2022-12-09T21:36:06.018Z,16.35
2022-12-09T21:38:34.558Z,16.20
2022-12-09T21:41:04.562Z,15.63
2022-12-09T21:43:33.608Z,16.75
2022-12-09T21:46:02.706Z,14.65
2022-12-09T21:48:30.733Z,16.02
2022-12-09T21:51:01.890Z,16.25
2022-12-09T21:53:30.982Z,15.98
2022-12-09T21:56:02.694Z,17.10
2022-12-09T21:58:31.046Z,17.13
2022-12-09T22:00:59.382Z,18.02
2022-12-09T22:03:27.291Z,16.67
2022-12-09T22:05:58.354Z,17.08
2022-12-09T22:08:26.919Z,16.83
2022-12-09T22:10:58.222Z,16.98
2022-12-09T22:13:26.105Z,17.73
2022-12-09T22:15:53.967Z,15.43
2022-12-09T22:18:21.643Z,17.02
2022-12-09T22:21:23.200Z,19.20
2022-12-09T22:23:37.578Z,17.15
2022-12-09T22:26:07.765Z,17.65
2022-12-09T22:28:35.809Z,16.70
2022-12-09T22:31:09.725Z,17.75
2022-12-09T22:33:37.435Z,17.50
2022-12-09T22:36:05.950Z,17.65
2022-12-09T22:38:33.706Z,15.98
2022-12-09T22:41:04.597Z,15.23
2022-12-09T22:43:38.013Z,16.85
2022-12-09T22:46:06.878Z,17.52
2022-12-09T22:48:34.823Z,16.48
2022-12-09T22:51:04.494Z,17.67
2022-12-09T22:53:32.531Z,19.75
2022-12-09T22:56:00.473Z,17.60
2022-12-09T22:58:28.436Z,16.70
2022-12-09T23:00:58.081Z,17.83
2022-12-09T23:03:25.941Z,17.25
2022-12-09T23:05:53.553Z,16.85
2022-12-09T23:08:22.451Z,18.67
2022-12-09T23:10:50.229Z,17.35
2022-12-09T23:13:18.160Z,16.85
2022-12-09T23:15:47.154Z,18.17
2022-12-09T23:18:16.343Z,16.10
2022-12-09T23:20:44.036Z,18.60
2022-12-09T23:23:11.797Z,16.38
2022-12-09T23:25:39.395Z,17.45
2022-12-09T23:28:07.040Z,14.70
2022-12-09T23:30:34.873Z,17.23
2022-12-09T23:33:02.757Z,16.23
2022-12-09T23:35:31.886Z,15.90
2022-12-09T23:37:59.593Z,16.10
2022-12-09T23:40:27.300Z,17.90
2022-12-09T23:42:55.193Z,17.60
2022-12-09T23:45:22.918Z,17.88
2022-12-09T23:47:50.592Z,18.48
2022-12-09T23:50:18.350Z,19.15
2022-12-09T23:52:47.295Z,20.20
2022-12-09T23:55:15.099Z,20.42
2022-12-09T23:57:42.717Z,20.10
